style.pk alexa rank chart, style.pk alexa rank daily changes

style.pk alexa rank chart, style.pk alexa rank daily changes

style.pk
Actual rank:
196 305

RANK HISTORY

Date Rank Diff
2018/05/26 196 305 -117 395
2018/05/25 313 700 -134 949
2018/05/24 448 649 +239 191
2018/05/23 209 458 +61 829
2018/05/22 147 629 -56 778
2018/05/21 204 407 +33 367
2018/05/20 171 040 -57 502
2018/05/19 228 542 -174 956
2018/05/18 403 498 +164 833
2018/05/17 238 665 +46 330
2018/05/16 192 335 -10 421
2018/05/15 202 756 -26 204
2018/05/14 228 960 +13 595
2018/05/13 215 365 +34 275
2018/05/12 181 090 -17 168
2018/05/11 198 258 -37 409
2018/05/10 235 667 +71 520
2018/05/09 164 147 +1 781
2018/05/08 162 366 +1 292
2018/05/07 161 074 -22 740
2018/05/06 183 814 -6 719
2018/05/05 190 533 +12 707
2018/05/04 177 826 -157 889
2018/05/03 335 715 +114 151
2018/05/02 221 564 +56 348
2018/05/01 165 216 +14 643
2018/04/30 150 573 -55 614
2018/04/29 206 187 +14 132
2018/04/28 192 055 +48 122
2018/04/27 143 933 -92 638
2018/04/26 236 571 +14 885
2018/04/25 221 686 +43 032
2018/04/24 178 654 +34 721
2018/04/23 143 933 -25 035
2018/04/22 168 968 -85 257
2018/04/21 254 225 +57 010
2018/04/20 197 215 -45 178
2018/04/19 242 393 +52 800
2018/04/18 189 593 -46 189
2018/04/17 235 782 +90 707
2018/04/16 145 075 -117 167
2018/04/15 262 242 -37 215
2018/04/14 299 457 +107 047
2018/04/13 192 410 -221 340
2018/04/12 413 750 +185 949
2018/04/11 227 801 -78 294
2018/04/10 306 095 +65 181
2018/04/09 240 914 -2 800
2018/04/08 243 714 +60 403
2018/04/07 183 311 -93 913
2018/04/06 277 224 -21 537
2018/04/05 298 761 +78 095
2018/04/04 220 666 +96 584
2018/04/03 124 082 -93 695
2018/04/02 217 777 +15 379
2018/04/01 202 398 +6 668
2018/03/31 195 730 +7 394
2018/03/30 188 336 +637
2018/03/29 187 699 -136 809
2018/03/28 324 508 +156 404
2018/03/27 168 104

WIDGET FOR YOUR SITE

DOMAINS WITH THE NEAREST RANK

Domain Rank
tebnema.ir 196 300
uspace.ir 196 301
peopleseaccount.com 196 302
saveyoutube.ru 196 303
mirtraha.com 196 304
style.pk 196 305
mirovinsko.hr 196 306
reno.ro 196 307
shelby.com 196 308
dailyrazor.com 196 309
screenlight.tv 196 310

DOMAINS WITH THE NEAREST RANK BY TLD .pk

Domain Rank
ethnic.pk 187 802
khareed.pk 193 138
roshanpakistan.pk 194 327
content.pk 195 184
style.pk 196 305
talib.pk 199 179
dikhawa.pk 200 428
ntsresults.pk 200 774
humnews.pk 203 658
jobsworld.pk 205 512